Time;durP1;ratioP1;P1;durP2;ratioP2;P2;SDS_P1;SDS_P2;PMS_P1;PMS_P2;Temp;Humidity;BMP_temperature;BMP_pressure;BME280_temperature;BME280_humidity;BME280_pressure;Samples;Min_cycle;Max_cycle;Signal;HPM_P1;HPM_P2
2022/11/28 00:01:15;;;;;;;;;;;21.50;40.40;;;;;;484194;246;2164;-44
2022/11/28 00:03:16;;;;;;;;;;;21.50;40.40;;;;;;484659;246;1226;-44
2022/11/28 00:05:17;;;;;;;;;;;21.50;40.40;;;;;;484242;246;1327;-44
2022/11/28 00:07:19;;;;;;;;;;;21.50;40.50;;;;;;484278;246;1226;-45
2022/11/28 00:09:20;;;;;;;;;;;21.70;40.20;;;;;;484556;246;1280;-44
2022/11/28 00:11:21;;;;;;;;;;;21.90;39.80;;;;;;484232;246;1262;-45
2022/11/28 00:13:22;;;;;;;;;;;22.00;39.40;;;;;;484146;246;1346;-44
2022/11/28 00:15:24;;;;;;;;;;;22.20;39.10;;;;;;484141;246;1589;-44
2022/11/28 00:17:25;;;;;;;;;;;22.20;39.10;;;;;;484167;246;1259;-44
2022/11/28 00:19:27;;;;;;;;;;;22.20;39.00;;;;;;484609;246;1286;-44
2022/11/28 00:21:28;;;;;;;;;;;22.00;39.20;;;;;;484303;246;2647;-44
2022/11/28 00:23:30;;;;;;;;;;;21.90;39.50;;;;;;484215;246;1668;-44
2022/11/28 00:25:31;;;;;;;;;;;21.80;39.60;;;;;;484079;246;2166;-45
2022/11/28 00:27:32;;;;;;;;;;;21.80;39.90;;;;;;484138;246;1670;-44
2022/11/28 00:29:33;;;;;;;;;;;21.70;39.90;;;;;;484233;246;1436;-44
2022/11/28 00:31:35;;;;;;;;;;;21.60;40.00;;;;;;484082;246;1378;-44
2022/11/28 00:33:36;;;;;;;;;;;21.50;40.00;;;;;;484222;246;1195;-44
2022/11/28 00:35:37;;;;;;;;;;;21.50;40.20;;;;;;484148;246;1230;-44
2022/11/28 00:37:39;;;;;;;;;;;21.50;40.20;;;;;;484248;246;1248;-44
2022/11/28 00:39:40;;;;;;;;;;;21.50;40.30;;;;;;484170;246;1296;-44
2022/11/28 00:41:41;;;;;;;;;;;21.40;40.30;;;;;;484130;246;2168;-45
2022/11/28 00:43:43;;;;;;;;;;;21.40;40.40;;;;;;484469;246;1240;-45
2022/11/28 00:45:44;;;;;;;;;;;21.40;40.40;;;;;;484306;246;1314;-44
2022/11/28 00:47:47;;;;;;;;;;;21.50;40.40;;;;;;484204;246;1553;-44
2022/11/28 00:49:47;;;;;;;;;;;21.40;40.30;;;;;;484168;246;2148;-45
2022/11/28 00:51:49;;;;;;;;;;;21.50;40.40;;;;;;484427;246;1207;-44
2022/11/28 00:53:50;;;;;;;;;;;21.40;40.30;;;;;;484244;246;1206;-44
2022/11/28 00:55:51;;;;;;;;;;;21.40;40.40;;;;;;484153;246;1766;-44
2022/11/28 00:57:54;;;;;;;;;;;21.40;40.50;;;;;;484537;246;1418;-44
2022/11/28 00:59:54;;;;;;;;;;;21.40;40.50;;;;;;484410;246;2156;-44
2022/11/28 01:01:55;;;;;;;;;;;21.40;40.40;;;;;;484520;246;2176;-44
2022/11/28 01:03:57;;;;;;;;;;;21.60;40.10;;;;;;484201;246;1241;-45
2022/11/28 01:05:58;;;;;;;;;;;21.80;39.80;;;;;;484148;246;1263;-45
2022/11/28 01:07:59;;;;;;;;;;;22.00;39.40;;;;;;484141;246;1229;-45
2022/11/28 01:10:01;;;;;;;;;;;22.10;39.20;;;;;;484540;246;1207;-44
2022/11/28 01:12:02;;;;;;;;;;;22.20;39.00;;;;;;484178;246;1206;-45
2022/11/28 01:14:03;;;;;;;;;;;22.20;39.00;;;;;;484297;246;1309;-45
2022/11/28 01:16:05;;;;;;;;;;;22.20;39.00;;;;;;484228;246;1264;-44
2022/11/28 01:18:06;;;;;;;;;;;22.00;39.10;;;;;;484549;246;1198;-44
2022/11/28 01:20:07;;;;;;;;;;;21.90;39.30;;;;;;484655;246;1188;-44
2022/11/28 01:22:09;;;;;;;;;;;21.80;39.60;;;;;;484654;246;2208;-44
2022/11/28 01:24:10;;;;;;;;;;;21.70;39.70;;;;;;484673;246;1082;-44
2022/11/28 01:26:12;;;;;;;;;;;21.70;39.90;;;;;;484353;246;1717;-44
2022/11/28 01:28:13;;;;;;;;;;;21.60;40.00;;;;;;484575;246;1383;-44
2022/11/28 01:30:14;;;;;;;;;;;21.60;40.10;;;;;;484156;246;1234;-44
2022/11/28 01:32:16;;;;;;;;;;;21.50;40.20;;;;;;484166;246;1391;-44
2022/11/28 01:34:18;;;;;;;;;;;21.50;40.30;;;;;;484148;246;1217;-44
2022/11/28 01:36:18;;;;;;;;;;;21.50;40.20;;;;;;484452;246;1268;-44
2022/11/28 01:38:20;;;;;;;;;;;21.40;40.20;;;;;;484054;246;1289;-44
2022/11/28 01:40:21;;;;;;;;;;;21.40;40.30;;;;;;484229;246;1897;-45
2022/11/28 01:42:22;;;;;;;;;;;21.30;40.30;;;;;;484111;246;2235;-44
2022/11/28 01:44:24;;;;;;;;;;;21.30;40.40;;;;;;484112;246;1289;-45
2022/11/28 01:46:25;;;;;;;;;;;21.40;40.40;;;;;;484145;246;1225;-44
2022/11/28 01:48:27;;;;;;;;;;;21.30;40.40;;;;;;484170;246;1326;-44
2022/11/28 01:50:28;;;;;;;;;;;21.30;40.50;;;;;;484174;246;1285;-44
2022/11/28 01:52:29;;;;;;;;;;;21.30;40.50;;;;;;484216;246;1205;-44
2022/11/28 01:54:31;;;;;;;;;;;21.40;40.60;;;;;;484116;246;1234;-44
2022/11/28 01:56:32;;;;;;;;;;;21.30;40.60;;;;;;484205;246;1224;-45
2022/11/28 01:58:33;;;;;;;;;;;21.30;40.50;;;;;;484182;246;1267;-44
2022/11/28 02:00:35;;;;;;;;;;;21.30;40.50;;;;;;484213;246;1333;-44
2022/11/28 02:02:36;;;;;;;;;;;21.30;40.50;;;;;;484496;246;2156;-44
2022/11/28 02:04:37;;;;;;;;;;;21.30;40.50;;;;;;484597;246;1204;-44
2022/11/28 02:06:39;;;;;;;;;;;21.30;40.60;;;;;;484219;246;1256;-44
2022/11/28 02:08:40;;;;;;;;;;;21.30;40.50;;;;;;484378;246;1202;-44
2022/11/28 02:10:41;;;;;;;;;;;21.30;40.50;;;;;;484226;246;1316;-44
2022/11/28 02:12:43;;;;;;;;;;;21.20;40.60;;;;;;484132;246;1232;-44
2022/11/28 02:14:44;;;;;;;;;;;21.30;40.60;;;;;;484206;246;1236;-44
2022/11/28 02:16:45;;;;;;;;;;;21.30;40.60;;;;;;484422;246;1239;-44
2022/11/28 02:18:47;;;;;;;;;;;21.20;40.60;;;;;;484182;246;1253;-44
2022/11/28 02:20:48;;;;;;;;;;;21.20;40.60;;;;;;484636;246;1323;-44
2022/11/28 02:22:49;;;;;;;;;;;21.20;40.60;;;;;;484194;246;2160;-44
2022/11/28 02:24:51;;;;;;;;;;;21.30;40.60;;;;;;484214;246;1309;-44
2022/11/28 02:26:52;;;;;;;;;;;21.20;40.60;;;;;;484231;246;1269;-44
2022/11/28 02:28:53;;;;;;;;;;;21.20;40.60;;;;;;484243;246;1238;-44
2022/11/28 02:30:55;;;;;;;;;;;21.20;40.60;;;;;;484234;246;1174;-44
2022/11/28 02:32:56;;;;;;;;;;;21.20;40.60;;;;;;484197;246;1257;-44
2022/11/28 02:34:57;;;;;;;;;;;21.20;40.70;;;;;;484410;246;1324;-44
2022/11/28 02:36:59;;;;;;;;;;;21.20;40.60;;;;;;484515;246;1228;-44
2022/11/28 02:39:01;;;;;;;;;;;21.20;40.60;;;;;;484608;246;1111;-44
2022/11/28 02:41:01;;;;;;;;;;;21.20;40.60;;;;;;484410;246;1953;-44
2022/11/28 02:43:03;;;;;;;;;;;21.20;40.60;;;;;;484249;246;2156;-44
2022/11/28 02:45:04;;;;;;;;;;;21.20;40.70;;;;;;484637;246;1274;-44
2022/11/28 02:47:05;;;;;;;;;;;21.20;40.70;;;;;;484341;246;1244;-44
2022/11/28 02:49:06;;;;;;;;;;;21.20;40.60;;;;;;484180;246;1281;-44
2022/11/28 02:51:08;;;;;;;;;;;21.20;40.60;;;;;;484466;246;1257;-44
2022/11/28 02:53:09;;;;;;;;;;;21.20;40.60;;;;;;484387;246;1221;-44
2022/11/28 02:55:10;;;;;;;;;;;21.20;40.60;;;;;;484405;246;1232;-44
2022/11/28 02:57:12;;;;;;;;;;;21.20;40.60;;;;;;484173;246;1229;-44
2022/11/28 02:59:13;;;;;;;;;;;21.20;40.60;;;;;;484561;246;1252;-44
2022/11/28 03:01:14;;;;;;;;;;;21.20;40.60;;;;;;484296;246;1330;-44
2022/11/28 03:03:16;;;;;;;;;;;21.20;40.60;;;;;;484507;246;2194;-44
2022/11/28 03:05:17;;;;;;;;;;;21.20;40.60;;;;;;484412;246;1301;-44
2022/11/28 03:07:18;;;;;;;;;;;21.20;40.60;;;;;;484596;246;1760;-44
2022/11/28 03:09:20;;;;;;;;;;;21.20;40.60;;;;;;484311;246;1282;-44
2022/11/28 03:11:21;;;;;;;;;;;21.20;40.70;;;;;;484497;246;1334;-45
2022/11/28 03:13:22;;;;;;;;;;;21.10;40.70;;;;;;484145;246;1254;-44
2022/11/28 03:15:24;;;;;;;;;;;21.10;40.70;;;;;;484248;246;1274;-44
2022/11/28 03:17:25;;;;;;;;;;;21.10;40.70;;;;;;484144;246;1391;-44
2022/11/28 03:19:26;;;;;;;;;;;21.20;40.70;;;;;;484456;246;1768;-44
2022/11/28 03:21:28;;;;;;;;;;;21.10;40.70;;;;;;484310;246;1326;-44
2022/11/28 03:23:29;;;;;;;;;;;21.10;40.70;;;;;;484085;246;2224;-44
2022/11/28 03:25:30;;;;;;;;;;;21.10;40.70;;;;;;484151;246;1241;-44
2022/11/28 03:27:32;;;;;;;;;;;21.10;40.70;;;;;;484133;246;1301;-44
2022/11/28 03:29:33;;;;;;;;;;;21.10;40.70;;;;;;484587;246;1271;-44
2022/11/28 03:31:34;;;;;;;;;;;21.10;40.70;;;;;;484607;246;1664;-44
2022/11/28 03:33:36;;;;;;;;;;;21.10;40.60;;;;;;484432;246;1278;-44
2022/11/28 03:35:37;;;;;;;;;;;21.20;40.70;;;;;;484223;246;1231;-44
2022/11/28 03:37:38;;;;;;;;;;;21.10;40.60;;;;;;484166;246;1412;-44
2022/11/28 03:39:40;;;;;;;;;;;21.10;40.60;;;;;;484221;246;1227;-45
2022/11/28 03:41:41;;;;;;;;;;;21.10;40.60;;;;;;484668;246;1248;-44
2022/11/28 03:43:42;;;;;;;;;;;21.10;40.60;;;;;;484184;246;2191;-44
2022/11/28 03:45:44;;;;;;;;;;;21.10;40.60;;;;;;484417;246;1292;-44
2022/11/28 03:47:45;;;;;;;;;;;21.10;40.70;;;;;;484271;246;1404;-44
2022/11/28 03:49:46;;;;;;;;;;;21.10;40.60;;;;;;484625;246;1525;-44
2022/11/28 03:51:47;;;;;;;;;;;21.10;40.70;;;;;;484453;246;1221;-44
2022/11/28 03:53:49;;;;;;;;;;;21.10;40.80;;;;;;484300;246;1357;-44
2022/11/28 03:55:50;;;;;;;;;;;21.10;40.70;;;;;;484391;246;1467;-44
2022/11/28 03:57:51;;;;;;;;;;;21.10;40.70;;;;;;484423;246;1678;-44
2022/11/28 03:59:53;;;;;;;;;;;21.10;40.60;;;;;;484321;246;1235;-44
2022/11/28 04:01:54;;;;;;;;;;;21.10;40.60;;;;;;484198;246;1242;-44
2022/11/28 04:03:55;;;;;;;;;;;21.10;40.70;;;;;;484180;246;2168;-44
2022/11/28 04:05:57;;;;;;;;;;;21.10;40.60;;;;;;484288;246;1244;-44
2022/11/28 04:07:58;;;;;;;;;;;21.10;40.70;;;;;;484192;246;1288;-44
2022/11/28 04:09:59;;;;;;;;;;;21.10;40.70;;;;;;484201;246;1969;-44
2022/11/28 04:12:01;;;;;;;;;;;21.00;40.70;;;;;;484647;246;1285;-44
2022/11/28 04:14:02;;;;;;;;;;;21.10;40.70;;;;;;484166;246;1228;-45
2022/11/28 04:16:03;;;;;;;;;;;21.10;40.70;;;;;;484318;246;1354;-44
2022/11/28 04:18:05;;;;;;;;;;;21.10;40.70;;;;;;484260;246;1279;-44
2022/11/28 04:20:06;;;;;;;;;;;21.10;40.60;;;;;;484172;246;1227;-44
2022/11/28 04:22:08;;;;;;;;;;;21.20;40.60;;;;;;484150;246;1304;-44
2022/11/28 04:24:09;;;;;;;;;;;21.10;40.60;;;;;;484179;246;2184;-44
2022/11/28 04:26:10;;;;;;;;;;;21.10;40.60;;;;;;484152;246;1386;-44
2022/11/28 04:28:11;;;;;;;;;;;21.20;40.60;;;;;;484153;246;1346;-44
2022/11/28 04:30:13;;;;;;;;;;;21.30;40.20;;;;;;484035;246;1268;-45
2022/11/28 04:32:14;;;;;;;;;;;21.50;39.90;;;;;;484273;246;1407;-44
2022/11/28 04:34:15;;;;;;;;;;;21.70;39.60;;;;;;484146;246;1240;-44
2022/11/28 04:36:17;;;;;;;;;;;21.80;39.40;;;;;;484186;246;1406;-45
2022/11/28 04:38:18;;;;;;;;;;;21.90;39.20;;;;;;484326;246;1549;-45
2022/11/28 04:40:19;;;;;;;;;;;22.00;39.00;;;;;;484527;246;1569;-44
2022/11/28 04:42:21;;;;;;;;;;;22.10;38.90;;;;;;484144;246;1594;-44
2022/11/28 04:44:22;;;;;;;;;;;22.10;38.70;;;;;;484101;246;2180;-44
2022/11/28 04:46:25;;;;;;;;;;;22.20;38.60;;;;;;484071;246;1562;-44
2022/11/28 04:48:25;;;;;;;;;;;22.20;38.40;;;;;;484406;246;2107;-45
2022/11/28 04:50:27;;;;;;;;;;;22.30;38.40;;;;;;484299;246;1372;-45
2022/11/28 04:52:28;;;;;;;;;;;22.30;38.30;;;;;;484354;246;1224;-45
2022/11/28 04:54:29;;;;;;;;;;;22.40;38.30;;;;;;484609;246;1418;-44
2022/11/28 04:56:31;;;;;;;;;;;22.40;38.20;;;;;;484226;246;1228;-44
2022/11/28 04:58:32;;;;;;;;;;;22.50;38.20;;;;;;484209;246;1227;-45
2022/11/28 05:00:33;;;;;;;;;;;22.50;38.10;;;;;;484205;246;1213;-45
2022/11/28 05:02:35;;;;;;;;;;;22.50;38.00;;;;;;484212;246;1317;-44
2022/11/28 05:04:36;;;;;;;;;;;22.50;38.00;;;;;;484218;246;2199;-45
2022/11/28 05:06:37;;;;;;;;;;;22.60;38.00;;;;;;484611;242;1209;-45
2022/11/28 05:08:39;;;;;;;;;;;22.60;37.90;;;;;;484110;246;1507;-45
2022/11/28 05:10:40;;;;;;;;;;;22.60;37.80;;;;;;484671;246;1720;-44
2022/11/28 05:12:41;;;;;;;;;;;22.70;37.80;;;;;;484321;246;1643;-44
2022/11/28 05:14:43;;;;;;;;;;;22.70;37.80;;;;;;484204;246;1476;-45
2022/11/28 05:16:44;;;;;;;;;;;22.70;37.70;;;;;;484565;246;1668;-44
2022/11/28 05:18:45;;;;;;;;;;;22.70;37.70;;;;;;484188;246;1322;-45
2022/11/28 05:20:47;;;;;;;;;;;22.70;37.70;;;;;;484237;246;1953;-44
2022/11/28 05:22:48;;;;;;;;;;;22.70;37.60;;;;;;484179;246;1711;-44
2022/11/28 05:24:49;;;;;;;;;;;22.80;37.70;;;;;;484488;246;2187;-45
2022/11/28 05:26:50;;;;;;;;;;;22.80;37.60;;;;;;484177;246;1758;-44
2022/11/28 05:28:52;;;;;;;;;;;22.80;37.60;;;;;;484060;246;1769;-45
2022/11/28 05:30:53;;;;;;;;;;;22.80;37.60;;;;;;484434;246;1231;-44
2022/11/28 05:32:55;;;;;;;;;;;22.80;37.50;;;;;;484445;246;1523;-45
2022/11/28 05:34:56;;;;;;;;;;;22.90;37.50;;;;;;484599;246;1176;-44
2022/11/28 05:36:57;;;;;;;;;;;22.90;37.50;;;;;;484608;246;1208;-44
2022/11/28 05:38:58;;;;;;;;;;;22.90;37.50;;;;;;484101;246;1263;-45
2022/11/28 05:41:00;;;;;;;;;;;22.90;37.40;;;;;;484124;246;1285;-45
2022/11/28 05:43:01;;;;;;;;;;;22.90;37.50;;;;;;484355;246;1200;-44
2022/11/28 05:45:03;;;;;;;;;;;22.90;37.40;;;;;;484006;246;2223;-45
2022/11/28 05:47:04;;;;;;;;;;;22.90;37.40;;;;;;484187;246;1275;-45
2022/11/28 05:49:05;;;;;;;;;;;22.90;37.40;;;;;;484552;246;1371;-45
2022/11/28 05:51:07;;;;;;;;;;;23.00;37.40;;;;;;484501;246;1230;-45
2022/11/28 05:53:08;;;;;;;;;;;23.00;37.40;;;;;;484126;246;1270;-45
2022/11/28 05:55:09;;;;;;;;;;;23.00;37.40;;;;;;484538;246;1296;-45
2022/11/28 05:57:10;;;;;;;;;;;23.00;37.30;;;;;;484357;246;1229;-45
2022/11/28 05:59:12;;;;;;;;;;;23.00;37.30;;;;;;484315;246;1578;-44
2022/11/28 06:01:13;;;;;;;;;;;23.00;37.30;;;;;;484197;246;1236;-45
2022/11/28 06:03:14;;;;;;;;;;;23.00;37.30;;;;;;484625;246;1221;-45
2022/11/28 06:05:16;;;;;;;;;;;23.00;37.30;;;;;;484140;246;2192;-45
2022/11/28 06:07:18;;;;;;;;;;;23.00;37.30;;;;;;484285;246;1263;-45
2022/11/28 06:09:19;;;;;;;;;;;23.00;37.30;;;;;;484131;246;1410;-45
2022/11/28 06:11:20;;;;;;;;;;;23.00;37.30;;;;;;484472;246;1358;-45
2022/11/28 06:13:22;;;;;;;;;;;23.00;37.30;;;;;;484114;246;1445;-45
2022/11/28 06:15:23;;;;;;;;;;;23.10;37.30;;;;;;484048;246;1291;-45
2022/11/28 06:17:24;;;;;;;;;;;23.10;37.30;;;;;;484328;246;1275;-44
2022/11/28 06:19:26;;;;;;;;;;;23.10;37.30;;;;;;484100;246;1216;-45
2022/11/28 06:21:27;;;;;;;;;;;23.10;37.20;;;;;;484021;246;1688;-45
2022/11/28 06:23:29;;;;;;;;;;;23.10;37.20;;;;;;484443;246;2165;-45
2022/11/28 06:25:30;;;;;;;;;;;23.10;37.20;;;;;;484210;246;1725;-44
2022/11/28 06:27:31;;;;;;;;;;;23.10;37.20;;;;;;483954;246;1361;-44
2022/11/28 06:29:33;;;;;;;;;;;23.10;37.20;;;;;;484214;246;1618;-45
2022/11/28 06:31:34;;;;;;;;;;;23.10;37.20;;;;;;484078;246;1281;-44
2022/11/28 06:33:35;;;;;;;;;;;23.20;37.20;;;;;;484114;246;1664;-45
2022/11/28 06:35:37;;;;;;;;;;;23.10;37.10;;;;;;484092;246;1232;-44
2022/11/28 06:37:38;;;;;;;;;;;23.10;37.10;;;;;;484143;246;1407;-44
2022/11/28 06:39:39;;;;;;;;;;;23.20;37.20;;;;;;484237;246;1705;-45
2022/11/28 06:41:41;;;;;;;;;;;23.20;37.20;;;;;;483999;246;1131;-45
2022/11/28 06:43:42;;;;;;;;;;;23.20;37.20;;;;;;484567;246;2419;-45
2022/11/28 06:45:43;;;;;;;;;;;23.20;37.20;;;;;;484066;246;1313;-45
2022/11/28 06:47:45;;;;;;;;;;;23.20;37.20;;;;;;484011;246;1137;-45
2022/11/28 06:49:46;;;;;;;;;;;23.20;37.20;;;;;;484272;246;1217;-45
2022/11/28 06:51:47;;;;;;;;;;;23.20;37.20;;;;;;483963;246;1198;-45
2022/11/28 06:53:49;;;;;;;;;;;23.20;37.10;;;;;;484246;246;1397;-45
2022/11/28 06:55:50;;;;;;;;;;;23.20;37.10;;;;;;484284;246;1300;-45
2022/11/28 06:57:51;;;;;;;;;;;23.20;37.10;;;;;;484107;246;1250;-45
2022/11/28 06:59:53;;;;;;;;;;;23.20;37.10;;;;;;484308;246;1231;-45
2022/11/28 07:01:56;;;;;;;;;;;23.20;37.10;;;;;;484096;246;1671;-44
2022/11/28 07:03:55;;;;;;;;;;;23.20;37.10;;;;;;483960;246;2184;-45
2022/11/28 07:05:57;;;;;;;;;;;23.30;37.10;;;;;;484039;246;1387;-45
2022/11/28 07:07:58;;;;;;;;;;;23.30;37.10;;;;;;484483;246;1206;-45
2022/11/28 07:09:59;;;;;;;;;;;23.30;37.10;;;;;;484047;246;1265;-44
2022/11/28 07:12:01;;;;;;;;;;;23.30;37.10;;;;;;484238;246;1420;-45
2022/11/28 07:14:02;;;;;;;;;;;23.20;37.00;;;;;;483976;246;1183;-44
2022/11/28 07:16:03;;;;;;;;;;;23.10;37.10;;;;;;484070;246;1221;-44
2022/11/28 07:18:05;;;;;;;;;;;23.10;37.20;;;;;;484172;246;1293;-44
2022/11/28 07:20:06;;;;;;;;;;;23.00;37.50;;;;;;484398;246;1189;-44
2022/11/28 07:22:07;;;;;;;;;;;22.80;37.80;;;;;;483752;246;1462;-44
2022/11/28 07:24:09;;;;;;;;;;;22.60;38.00;;;;;;483960;242;2192;-45
2022/11/28 07:26:10;;;;;;;;;;;22.50;38.30;;;;;;483777;246;1387;-44
2022/11/28 07:28:11;;;;;;;;;;;22.40;38.40;;;;;;483939;246;1288;-44
2022/11/28 07:30:13;;;;;;;;;;;22.30;38.60;;;;;;483828;246;1281;-44
2022/11/28 07:32:14;;;;;;;;;;;22.20;38.70;;;;;;483713;246;1647;-44
2022/11/28 07:34:15;;;;;;;;;;;22.10;38.80;;;;;;483559;246;1250;-45
2022/11/28 07:36:17;;;;;;;;;;;22.10;39.00;;;;;;483579;246;1151;-44
2022/11/28 07:38:18;;;;;;;;;;;22.00;39.00;;;;;;483618;246;1256;-45
2022/11/28 07:40:21;;;;;;;;;;;22.00;39.20;;;;;;483894;246;1245;-44
2022/11/28 07:42:20;;;;;;;;;;;22.00;39.20;;;;;;484000;246;2127;-44
2022/11/28 07:44:22;;;;;;;;;;;21.90;39.20;;;;;;483636;246;2248;-44
2022/11/28 07:46:23;;;;;;;;;;;21.90;39.20;;;;;;483626;246;1510;-44
2022/11/28 07:48:25;;;;;;;;;;;21.90;39.20;;;;;;483580;246;1381;-44
2022/11/28 07:50:26;;;;;;;;;;;21.80;39.20;;;;;;483540;246;1885;-44
2022/11/28 07:52:27;;;;;;;;;;;21.80;39.30;;;;;;483580;246;1365;-44
2022/11/28 07:54:29;;;;;;;;;;;21.80;39.30;;;;;;483708;246;1577;-44
2022/11/28 07:56:30;;;;;;;;;;;21.80;39.40;;;;;;483765;246;1264;-44
2022/11/28 07:58:31;;;;;;;;;;;21.70;39.30;;;;;;483277;246;1296;-45
2022/11/28 08:00:33;;;;;;;;;;;21.70;39.40;;;;;;483435;246;1504;-45
2022/11/28 08:02:34;;;;;;;;;;;21.60;39.40;;;;;;483324;246;1406;-44
2022/11/28 08:04:35;;;;;;;;;;;21.60;39.40;;;;;;483243;246;2188;-44
2022/11/28 08:06:37;;;;;;;;;;;21.60;39.50;;;;;;483449;246;1294;-44
2022/11/28 08:08:38;;;;;;;;;;;21.60;39.50;;;;;;483534;246;1623;-44
2022/11/28 08:10:39;;;;;;;;;;;21.50;39.50;;;;;;483329;246;1368;-44
2022/11/28 08:12:41;;;;;;;;;;;21.60;39.50;;;;;;483305;246;1270;-44
2022/11/28 08:14:42;;;;;;;;;;;21.60;39.50;;;;;;483466;246;1346;-44
2022/11/28 08:16:44;;;;;;;;;;;21.50;39.40;;;;;;483567;246;1423;-44
2022/11/28 08:18:45;;;;;;;;;;;21.50;39.40;;;;;;483335;246;1295;-44
2022/11/28 08:20:46;;;;;;;;;;;21.50;39.50;;;;;;483500;246;1231;-44
2022/11/28 08:22:48;;;;;;;;;;;21.50;39.50;;;;;;483679;246;1466;-44
2022/11/28 08:24:50;;;;;;;;;;;21.50;39.50;;;;;;483664;246;2191;-45
2022/11/28 08:26:51;;;;;;;;;;;21.40;39.50;;;;;;483450;246;1255;-44
2022/11/28 08:28:53;;;;;;;;;;;21.50;39.40;;;;;;483551;246;1507;-44
2022/11/28 08:30:54;;;;;;;;;;;21.50;39.50;;;;;;483608;242;1338;-45
2022/11/28 08:32:55;;;;;;;;;;;21.40;39.50;;;;;;483504;246;1717;-44
2022/11/28 08:34:57;;;;;;;;;;;21.50;39.50;;;;;;483439;246;1638;-44
2022/11/28 08:36:58;;;;;;;;;;;21.50;39.40;;;;;;483432;246;1225;-45
2022/11/28 08:39:00;;;;;;;;;;;21.40;39.40;;;;;;483578;246;1264;-44
2022/11/28 08:41:01;;;;;;;;;;;21.50;39.40;;;;;;483715;246;1476;-44
2022/11/28 08:43:02;;;;;;;;;;;21.40;39.40;;;;;;483744;246;1229;-44
2022/11/28 08:45:04;;;;;;;;;;;21.40;39.40;;;;;;483579;246;2203;-44
2022/11/28 08:47:05;;;;;;;;;;;21.50;39.40;;;;;;483570;246;1712;-44
2022/11/28 08:49:07;;;;;;;;;;;21.40;39.40;;;;;;483844;246;1291;-44
2022/11/28 08:51:09;;;;;;;;;;;21.40;39.40;;;;;;483586;246;1557;-44
2022/11/28 08:53:10;;;;;;;;;;;21.40;39.40;;;;;;483495;246;2423;-44
2022/11/28 08:55:11;;;;;;;;;;;21.40;39.40;;;;;;483381;246;1332;-44
2022/11/28 08:57:13;;;;;;;;;;;21.40;39.40;;;;;;483436;246;1379;-44
2022/11/28 08:59:14;;;;;;;;;;;21.40;39.30;;;;;;483394;246;1329;-44
2022/11/28 09:01:15;;;;;;;;;;;21.40;39.30;;;;;;483670;246;1608;-44
2022/11/28 09:03:17;;;;;;;;;;;21.40;39.30;;;;;;483484;246;1577;-44
2022/11/28 09:05:18;;;;;;;;;;;21.40;39.30;;;;;;483869;246;2245;-44
2022/11/28 09:07:19;;;;;;;;;;;21.40;39.30;;;;;;483574;246;1564;-44
2022/11/28 09:09:21;;;;;;;;;;;21.40;39.30;;;;;;483928;246;1258;-44
2022/11/28 09:11:22;;;;;;;;;;;21.40;39.30;;;;;;483696;246;1340;-44
2022/11/28 09:13:24;;;;;;;;;;;21.40;39.30;;;;;;483827;246;1188;-44
2022/11/28 09:15:25;;;;;;;;;;;21.40;39.30;;;;;;483611;246;1312;-44
2022/11/28 09:17:27;;;;;;;;;;;21.40;39.30;;;;;;483718;242;1373;-44
2022/11/28 09:19:28;;;;;;;;;;;21.40;39.30;;;;;;483673;246;1353;-44
2022/11/28 09:21:29;;;;;;;;;;;21.40;39.30;;;;;;483800;246;1218;-45
2022/11/28 09:23:31;;;;;;;;;;;21.40;39.30;;;;;;483817;246;1324;-44
2022/11/28 09:25:32;;;;;;;;;;;21.40;39.30;;;;;;483521;246;2204;-44
2022/11/28 09:27:33;;;;;;;;;;;21.40;39.30;;;;;;483638;246;1315;-45
2022/11/28 09:29:35;;;;;;;;;;;21.40;39.30;;;;;;483710;246;1390;-44
2022/11/28 09:31:36;;;;;;;;;;;21.40;39.30;;;;;;483648;246;1753;-44
2022/11/28 09:33:37;;;;;;;;;;;21.40;39.30;;;;;;483730;246;1230;-45
2022/11/28 09:35:39;;;;;;;;;;;21.30;39.30;;;;;;483725;246;1548;-44
2022/11/28 09:37:40;;;;;;;;;;;21.40;39.30;;;;;;483633;246;1669;-44
2022/11/28 09:39:41;;;;;;;;;;;21.40;39.30;;;;;;483565;246;1525;-45
2022/11/28 09:41:43;;;;;;;;;;;21.40;39.30;;;;;;483808;246;1233;-44
2022/11/28 09:43:44;;;;;;;;;;;21.40;39.30;;;;;;483556;246;1451;-44
2022/11/28 09:45:45;;;;;;;;;;;21.40;39.20;;;;;;483655;246;2204;-44
2022/11/28 09:47:47;;;;;;;;;;;21.40;39.20;;;;;;483509;246;1389;-44
2022/11/28 09:49:48;;;;;;;;;;;21.40;39.20;;;;;;483551;246;1299;-44
2022/11/28 09:51:49;;;;;;;;;;;21.40;39.30;;;;;;483455;246;1302;-44
2022/11/28 09:53:51;;;;;;;;;;;21.40;39.30;;;;;;483537;246;1794;-44
2022/11/28 09:55:52;;;;;;;;;;;21.40;39.20;;;;;;483464;246;1273;-44
2022/11/28 09:57:53;;;;;;;;;;;21.40;39.20;;;;;;483537;246;1387;-44
2022/11/28 09:59:55;;;;;;;;;;;21.40;39.30;;;;;;483423;246;1350;-44
2022/11/28 10:01:56;;;;;;;;;;;21.40;39.30;;;;;;483254;246;1457;-44
2022/11/28 10:03:57;;;;;;;;;;;21.40;39.30;;;;;;483405;246;1719;-44
2022/11/28 10:05:59;;;;;;;;;;;21.40;39.30;;;;;;482515;243;2204;-44
2022/11/28 10:08:00;;;;;;;;;;;21.40;39.30;;;;;;482969;242;1161;-44
2022/11/28 10:10:01;;;;;;;;;;;21.40;39.30;;;;;;483305;246;1285;-45
2022/11/28 10:12:03;;;;;;;;;;;21.40;39.30;;;;;;483098;246;1284;-44
2022/11/28 10:14:04;;;;;;;;;;;21.40;39.30;;;;;;483543;246;1201;-44
2022/11/28 10:16:06;;;;;;;;;;;21.40;39.30;;;;;;483571;246;1344;-45
2022/11/28 10:18:07;;;;;;;;;;;21.40;39.30;;;;;;483612;246;1229;-44
2022/11/28 10:20:08;;;;;;;;;;;21.40;39.20;;;;;;483434;246;1641;-44
2022/11/28 10:22:10;;;;;;;;;;;21.40;39.20;;;;;;483229;246;1165;-44
2022/11/28 10:24:11;;;;;;;;;;;21.40;39.30;;;;;;483478;246;1216;-44
2022/11/28 10:26:12;;;;;;;;;;;21.30;39.20;;;;;;483413;246;2188;-44
2022/11/28 10:28:14;;;;;;;;;;;21.30;39.20;;;;;;483701;246;1342;-45
2022/11/28 10:30:15;;;;;;;;;;;21.30;39.20;;;;;;483533;246;1360;-44
2022/11/28 10:32:16;;;;;;;;;;;21.30;39.20;;;;;;483489;246;1557;-44
2022/11/28 10:34:18;;;;;;;;;;;21.40;39.30;;;;;;483486;246;1634;-44
2022/11/28 10:36:19;;;;;;;;;;;21.30;39.20;;;;;;483395;246;1283;-44
2022/11/28 10:38:24;;;;;;;;;;;21.30;39.20;;;;;;483458;246;1521;-44
2022/11/28 10:40:22;;;;;;;;;;;21.30;39.20;;;;;;483478;246;1824;-45
2022/11/28 10:42:24;;;;;;;;;;;21.30;39.20;;;;;;483551;246;1363;-44
2022/11/28 10:44:25;;;;;;;;;;;21.30;39.20;;;;;;483432;246;1273;-44
2022/11/28 10:46:28;;;;;;;;;;;21.30;39.20;;;;;;483585;246;2211;-44
2022/11/28 10:48:28;;;;;;;;;;;21.30;39.20;;;;;;483481;246;2147;-44
2022/11/28 10:50:29;;;;;;;;;;;21.30;39.20;;;;;;483580;246;1179;-44
2022/11/28 10:52:30;;;;;;;;;;;21.30;39.20;;;;;;483599;246;2205;-44
2022/11/28 10:54:31;;;;;;;;;;;21.30;39.30;;;;;;483631;246;1302;-44
2022/11/28 10:56:33;;;;;;;;;;;21.30;39.30;;;;;;483732;246;1185;-44
2022/11/28 10:58:34;;;;;;;;;;;21.30;39.30;;;;;;483590;246;1338;-44
2022/11/28 11:00:35;;;;;;;;;;;21.30;39.30;;;;;;483681;246;1309;-44
2022/11/28 11:02:37;;;;;;;;;;;21.30;39.30;;;;;;483398;246;1567;-44
2022/11/28 11:04:38;;;;;;;;;;;21.30;39.30;;;;;;483785;246;1245;-44
2022/11/28 11:06:39;;;;;;;;;;;21.30;39.30;;;;;;483578;246;2203;-44
2022/11/28 11:08:41;;;;;;;;;;;21.30;39.30;;;;;;483473;246;1332;-44
2022/11/28 11:10:42;;;;;;;;;;;21.30;39.30;;;;;;483433;246;1195;-44
2022/11/28 11:12:43;;;;;;;;;;;21.30;39.30;;;;;;483592;246;1402;-44
2022/11/28 11:14:45;;;;;;;;;;;21.30;39.30;;;;;;483640;246;1245;-44
2022/11/28 11:16:46;;;;;;;;;;;21.30;39.30;;;;;;483745;246;1329;-44
2022/11/28 11:18:47;;;;;;;;;;;21.30;39.30;;;;;;483601;246;1193;-44
2022/11/28 11:20:49;;;;;;;;;;;21.20;39.30;;;;;;483775;246;1443;-44
2022/11/28 11:22:50;;;;;;;;;;;21.30;39.30;;;;;;483538;246;1348;-44
2022/11/28 11:24:51;;;;;;;;;;;21.20;39.30;;;;;;483463;246;1288;-44
2022/11/28 11:26:53;;;;;;;;;;;21.20;39.40;;;;;;483164;246;2188;-44
2022/11/28 11:28:54;;;;;;;;;;;21.20;39.30;;;;;;483100;246;1334;-44
2022/11/28 11:30:55;;;;;;;;;;;21.20;39.30;;;;;;482920;246;1312;-44
2022/11/28 11:32:57;;;;;;;;;;;21.20;39.30;;;;;;482753;246;1328;-44
2022/11/28 11:34:58;;;;;;;;;;;21.30;39.30;;;;;;483127;246;1400;-44
2022/11/28 11:36:59;;;;;;;;;;;21.20;39.30;;;;;;483237;246;1305;-44
2022/11/28 11:39:01;;;;;;;;;;;21.20;39.30;;;;;;483395;246;2209;-44
2022/11/28 11:41:02;;;;;;;;;;;21.20;39.30;;;;;;483664;246;1400;-44
2022/11/28 11:43:03;;;;;;;;;;;21.20;39.30;;;;;;483785;246;1152;-44
2022/11/28 11:45:05;;;;;;;;;;;21.20;39.30;;;;;;483603;246;1088;-45
2022/11/28 11:47:06;;;;;;;;;;;21.20;39.30;;;;;;483648;246;2183;-45
2022/11/28 11:49:07;;;;;;;;;;;21.20;39.30;;;;;;483378;246;1221;-44
2022/11/28 11:51:09;;;;;;;;;;;21.20;39.30;;;;;;483565;246;1190;-44
2022/11/28 11:53:10;;;;;;;;;;;21.20;39.30;;;;;;483699;246;1630;-44
2022/11/28 11:55:11;;;;;;;;;;;21.20;39.30;;;;;;483572;246;1264;-44
2022/11/28 11:57:13;;;;;;;;;;;21.20;39.30;;;;;;483326;246;1230;-44